Time;durP1;ratioP1;P1;durP2;ratioP2;P2;SDS_P1;SDS_P2;PMS_P1;PMS_P2;Temp;Humidity;BMP_temperature;BMP_pressure;BME280_temperature;BME280_humidity;BME280_pressure;Samples;Min_cycle;Max_cycle;Signal;HPM_P1;HPM_P2
2022/06/15 00:00:20;;;;;;;8.43;4.40;;;;;;;-145.18;100.00;46554.91;4973738;28;20035;-86
2022/06/15 00:02:46;;;;;;;8.97;4.10;;;;;;;-145.18;100.00;46562.72;4990773;28;20037;-88
2022/06/15 00:05:12;;;;;;;11.77;4.03;;;;;;;-145.18;100.00;46613.50;4989797;28;20193;-86
2022/06/15 00:07:37;;;;;;;7.63;4.30;;;;;;;-145.18;100.00;46619.38;4990463;28;20070;-86
2022/06/15 00:10:03;;;;;;;8.53;4.27;;;;;;;-145.18;100.00;46627.19;4991571;28;20120;-87
2022/06/15 00:12:28;;;;;;;8.17;4.33;;;;;;;-145.18;100.00;46629.13;4990646;28;20034;-86
2022/06/15 00:14:55;;;;;;;10.13;5.10;;;;;;;-145.18;100.00;46638.91;4990029;28;20036;-86
2022/06/15 00:17:21;;;;;;;7.17;3.97;;;;;;;-145.18;100.00;46625.22;4989060;28;20038;-86
2022/06/15 00:19:46;;;;;;;11.50;4.40;;;;;;;-145.18;100.00;46635.00;4990260;28;20041;-85
2022/06/15 00:22:12;;;;;;;7.93;4.87;;;;;;;-145.18;100.00;46636.94;4990644;28;20034;-86
2022/06/15 00:24:37;;;;;;;9.43;4.50;;;;;;;-145.18;100.00;46652.59;4972935;28;20030;-85
2022/06/15 00:27:03;;;;;;;9.27;5.23;;;;;;;-145.18;100.00;46660.41;4990525;28;20114;-83
2022/06/15 00:29:30;;;;;;;9.87;5.03;;;;;;;-145.18;100.00;46652.59;4990125;28;20044;-84
2022/06/15 00:31:55;;;;;;;12.47;5.30;;;;;;;-145.18;100.00;46664.31;4989961;28;20035;-85
2022/06/15 00:34:21;;;;;;;9.30;5.00;;;;;;;-145.18;100.00;46666.25;4991194;28;20566;-85
2022/06/15 00:36:46;;;;;;;10.30;4.90;;;;;;;-145.18;100.00;46674.06;4990753;28;20038;-84
2022/06/15 00:39:11;;;;;;;8.37;4.67;;;;;;;-145.18;100.00;46672.13;4991427;28;20034;-85
2022/06/15 00:41:38;;;;;;;8.47;4.30;;;;;;;-145.18;100.00;46666.25;4989220;28;20057;-85
2022/06/15 00:44:18;;;;;;;9.70;4.70;;;;;;;-145.18;100.00;46672.13;4991112;28;20037;-85
2022/06/15 00:46:46;;;;;;;11.73;4.93;;;;;;;-145.18;100.00;46670.16;4990982;28;20033;-85
2022/06/15 00:49:19;;;;;;;8.83;4.73;;;;;;;-145.18;100.00;46668.22;4990422;28;20109;-84
2022/06/15 00:51:46;;;;;;;10.77;5.13;;;;;;;-145.18;100.00;46672.13;4989875;28;20454;-85
2022/06/15 00:54:13;;;;;;;7.90;4.80;;;;;;;-145.18;100.00;46666.25;4991051;28;20118;-85
2022/06/15 00:56:39;;;;;;;8.23;5.20;;;;;;;-145.18;100.00;46672.13;4990886;28;20030;-84
2022/06/15 00:59:12;;;;;;;9.03;5.30;;;;;;;-145.18;100.00;46668.22;4991066;28;20048;-84
2022/06/15 01:01:37;;;;;;;12.33;5.23;;;;;;;-145.18;100.00;46670.16;4991661;28;20491;-86
2022/06/15 01:04:05;;;;;;;7.97;5.17;;;;;;;-145.18;100.00;46670.16;4994211;28;20109;-83
2022/06/15 01:06:50;;;;;;;7.57;4.83;;;;;;;-145.18;100.00;46670.16;4994015;28;20362;-86
2022/06/15 01:09:24;;;;;;;11.53;4.60;;;;;;;-145.18;100.00;46672.13;4994483;28;20035;-85
2022/06/15 01:12:14;;;;;;;7.65;5.18;;;;;;;-145.18;100.00;46668.22;4994189;28;20026;-84
2022/06/15 01:14:43;;;;;;;10.43;5.23;;;;;;;-145.18;100.00;46666.25;4994670;28;20057;-84
2022/06/15 01:17:36;;;;;;;9.60;4.40;;;;;;;-145.18;100.00;46662.34;4992960;28;20066;-84
2022/06/15 01:20:29;;;;;;;9.93;5.73;;;;;;;-145.18;100.00;46664.31;4994299;28;20088;-84
2022/06/15 01:23:25;;;;;;;11.97;5.10;;;;;;;-145.18;100.00;46666.25;4994120;28;20081;-85
2022/06/15 01:26:06;;;;;;;9.27;5.07;;;;;;;-145.18;100.00;46668.22;4994169;28;20026;-84
2022/06/15 01:28:43;;;;;;;11.27;5.63;;;;;;;-145.18;100.00;46660.41;4993541;28;20030;-84
2022/06/15 01:31:34;;;;;;;7.87;4.67;;;;;;;-145.18;100.00;46664.31;4994558;28;20050;-85
2022/06/15 01:34:30;;;;;;;15.63;4.90;;;;;;;-145.18;100.00;46662.34;4976663;28;20491;-85
2022/06/15 01:37:15;;;;;;;9.88;4.65;;;;;;;-145.18;100.00;46664.31;4993496;28;20038;-85
2022/06/15 01:39:43;;;;;;;10.20;4.72;;;;;;;-145.18;100.00;46662.34;4994078;28;20030;-85
2022/06/15 01:42:17;;;;;;;7.33;4.70;;;;;;;-145.18;100.00;46662.34;4993445;28;20034;-86
2022/06/15 01:44:50;;;;;;;10.23;5.13;;;;;;;-145.18;100.00;46664.31;4993902;28;20033;-85
2022/06/15 01:47:22;;;;;;;12.77;4.53;;;;;;;-145.18;100.00;46664.31;4993760;28;20031;-85
2022/06/15 01:49:59;;;;;;;12.07;4.83;;;;;;;-145.18;100.00;46664.31;4994095;28;20030;-86
2022/06/15 01:52:30;;;;;;;7.07;4.53;;;;;;;-145.18;100.00;46662.34;4993324;28;20029;-85
2022/06/15 01:55:08;;;;;;;12.27;4.57;;;;;;;-145.18;100.00;46666.25;4993883;28;20034;-85
2022/06/15 01:57:38;;;;;;;11.13;4.47;;;;;;;-145.18;100.00;46666.25;4993372;28;20034;-85
2022/06/15 02:03:57;;;;;;;7.23;4.77;;;;;;;-145.18;100.00;46662.34;5184719;23;20055;-88
2022/06/15 02:06:44;;;;;;;9.93;4.90;;;;;;;-145.18;100.00;46660.41;4959963;28;20047;-85
2022/06/15 02:09:13;;;;;;;8.53;4.83;;;;;;;-145.18;100.00;46660.41;4993270;28;20058;-86
2022/06/15 02:11:42;;;;;;;9.53;5.37;;;;;;;-145.18;100.00;46658.44;4993394;28;20045;-86
2022/06/15 02:14:14;;;;;;;11.13;5.10;;;;;;;-145.18;100.00;46658.44;4992825;28;20026;-85
2022/06/15 02:17:13;;;;;;;10.20;5.13;;;;;;;-145.18;100.00;46658.44;4993128;28;20027;-85
2022/06/15 02:19:43;;;;;;;7.20;4.50;;;;;;;-145.18;100.00;46654.53;4987660;28;20052;-85
2022/06/15 02:22:15;;;;;;;9.93;4.80;;;;;;;-145.18;100.00;46656.50;4993244;28;20132;-85
2022/06/15 02:24:43;;;;;;;9.87;5.40;;;;;;;-145.18;100.00;46660.41;4992671;28;20041;-86
2022/06/15 02:27:11;;;;;;;11.47;4.53;;;;;;;-145.18;100.00;46660.41;4993839;28;20474;-86
2022/06/15 02:29:38;;;;;;;8.53;5.37;;;;;;;-145.18;100.00;46658.44;4992768;28;20034;-85
2022/06/15 02:32:09;;;;;;;9.47;4.73;;;;;;;-145.18;100.00;46658.44;4993280;28;20394;-84
2022/06/15 02:34:34;;;;;;;10.23;5.27;;;;;;;-145.18;100.00;46658.44;4992857;28;20458;-85
2022/06/15 02:37:00;;;;;;;9.53;4.70;;;;;;;-145.18;100.00;46656.50;4993051;28;20042;-84
2022/06/15 02:39:25;;;;;;;8.80;4.77;;;;;;;-145.18;100.00;46654.53;4992478;28;20034;-84
2022/06/15 02:42:02;;;;;;;7.60;5.00;;;;;;;-145.18;100.00;46660.41;4992553;28;20371;-84
2022/06/15 02:44:33;;;;;;;10.60;5.70;;;;;;;-145.18;100.00;46656.50;4992207;28;20027;-84
2022/06/15 02:46:59;;;;;;;10.20;5.40;;;;;;;-145.18;100.00;46660.41;4992916;28;20037;-84
2022/06/15 02:49:25;;;;;;;8.30;5.53;;;;;;;-145.18;100.00;46648.69;4992260;28;20030;-85
2022/06/15 02:52:02;;;;;;;8.57;5.10;;;;;;;-145.18;100.00;46652.59;4992326;28;20114;-84
2022/06/15 02:54:40;;;;;;;7.67;5.07;;;;;;;-145.18;100.00;46652.59;4992368;28;20038;-85
2022/06/15 02:57:06;;;;;;;8.80;5.30;;;;;;;-145.18;100.00;46654.53;4992919;28;20041;-84
2022/06/15 02:59:32;;;;;;;9.23;5.00;;;;;;;-145.18;100.00;46650.63;4992653;28;20035;-85
2022/06/15 03:01:57;;;;;;;10.53;5.93;;;;;;;-145.18;100.00;46648.69;4992322;28;20030;-85
2022/06/15 03:04:23;;;;;;;10.27;5.13;;;;;;;-145.18;100.00;46652.59;4992601;28;20135;-85
2022/06/15 03:06:49;;;;;;;12.20;6.10;;;;;;;-145.18;100.00;46644.78;4992786;28;20050;-85
2022/06/15 03:09:14;;;;;;;7.93;5.53;;;;;;;-145.18;100.00;46650.63;4992546;28;20045;-85
2022/06/15 03:11:40;;;;;;;8.10;5.03;;;;;;;-145.18;100.00;46644.78;4992383;28;20049;-85
2022/06/15 03:14:06;;;;;;;15.83;5.60;;;;;;;-145.18;100.00;46648.69;4991820;28;20458;-84
2022/06/15 03:16:32;;;;;;;12.90;6.23;;;;;;;-145.18;100.00;46648.69;4975495;28;20034;-85
2022/06/15 03:18:58;;;;;;;10.43;5.87;;;;;;;-145.18;100.00;46646.72;4992599;28;20069;-85
2022/06/15 03:21:23;;;;;;;8.43;5.23;;;;;;;-145.18;100.00;46650.63;4992998;28;20038;-85
2022/06/15 03:23:48;;;;;;;13.50;5.40;;;;;;;-145.18;100.00;46648.69;4992053;28;20100;-85
2022/06/15 03:26:14;;;;;;;10.63;5.27;;;;;;;-145.18;100.00;46648.69;4993283;28;20121;-85
2022/06/15 03:28:40;;;;;;;9.03;4.80;;;;;;;-145.18;100.00;46650.63;4994186;28;20109;-85
2022/06/15 03:31:05;;;;;;;11.57;5.27;;;;;;;-145.18;100.00;46650.63;4979799;28;20125;-85
2022/06/15 03:33:31;;;;;;;11.03;5.10;;;;;;;-145.18;100.00;46646.72;4972379;28;20035;-84
2022/06/15 03:35:57;;;;;;;9.10;4.93;;;;;;;-145.18;100.00;46648.69;4972939;28;20035;-83
2022/06/15 03:38:23;;;;;;;11.03;5.40;;;;;;;-145.18;100.00;46654.53;4971976;28;20043;-85
2022/06/15 03:40:48;;;;;;;9.67;5.17;;;;;;;-145.18;100.00;46654.53;4972285;28;20046;-84
2022/06/15 03:43:15;;;;;;;10.10;5.47;;;;;;;-145.18;100.00;46648.69;4971845;28;20035;-84
2022/06/15 03:45:44;;;;;;;9.50;4.93;;;;;;;-145.18;100.00;46652.59;4971928;28;20034;-84
2022/06/15 03:48:11;;;;;;;9.60;5.00;;;;;;;-145.18;100.00;46650.63;4972064;28;20070;-84
2022/06/15 03:50:37;;;;;;;9.03;5.17;;;;;;;-145.18;100.00;46652.59;4972109;28;20118;-84
2022/06/15 03:53:03;;;;;;;9.10;5.10;;;;;;;-145.18;100.00;46648.69;4971550;28;20038;-86
2022/06/15 03:55:30;;;;;;;9.13;4.93;;;;;;;-145.18;100.00;46654.53;4972493;28;20546;-84
2022/06/15 03:57:56;;;;;;;10.03;5.07;;;;;;;-145.18;100.00;46650.63;4954367;28;20035;-85
2022/06/15 04:00:23;;;;;;;12.30;5.60;;;;;;;-145.18;100.00;46656.50;4972880;28;20039;-85
2022/06/15 04:02:49;;;;;;;9.70;4.93;;;;;;;-145.18;100.00;46656.50;4971336;28;20031;-81
2022/06/15 04:05:18;;;;;;;11.37;4.97;;;;;;;-145.18;100.00;46656.50;4972824;28;20640;-84
2022/06/15 04:10:27;;;;;;;8.27;5.43;;;;;;;-145.18;100.00;46656.50;4972428;28;20030;-85
2022/06/15 04:12:53;;;;;;;9.40;5.43;;;;;;;-145.18;100.00;46658.44;4971416;28;20031;-85
2022/06/15 04:15:18;;;;;;;10.67;5.37;;;;;;;-145.18;100.00;46656.50;4972160;28;20058;-85
2022/06/15 04:17:47;;;;;;;10.93;5.47;;;;;;;-145.18;100.00;46648.69;4970883;28;20043;-86
2022/06/15 04:20:33;;;;;;;13.80;5.70;;;;;;;-145.18;100.00;46652.59;4971267;28;20027;-85
2022/06/15 04:23:11;;;;;;;13.63;5.37;;;;;;;-145.18;100.00;46652.59;4971724;28;20046;-86
2022/06/15 04:25:45;;;;;;;9.07;5.17;;;;;;;-145.18;100.00;46654.53;4972916;28;20113;-84
2022/06/15 04:28:13;;;;;;;11.93;5.60;;;;;;;-145.18;100.00;46654.53;4987414;28;20546;-85
2022/06/15 04:30:39;;;;;;;9.70;5.23;;;;;;;-145.18;100.00;46650.63;4989683;28;20026;-84
2022/06/15 04:33:04;;;;;;;9.63;5.20;;;;;;;-145.18;100.00;46656.50;4987197;28;20030;-85
2022/06/15 04:35:30;;;;;;;10.23;5.63;;;;;;;-145.18;100.00;46656.50;4991439;28;20036;-84
2022/06/15 04:37:56;;;;;;;13.70;5.27;;;;;;;-145.18;100.00;46658.44;4994633;28;20034;-86
2022/06/15 04:40:21;;;;;;;8.63;5.07;;;;;;;-145.18;100.00;46654.53;4995062;28;20523;-85
2022/06/15 04:42:47;;;;;;;10.50;5.30;;;;;;;-145.18;100.00;46652.59;4994478;28;20047;-86
2022/06/15 04:45:14;;;;;;;15.80;5.73;;;;;;;-145.18;100.00;46652.59;4994975;28;20074;-85
2022/06/15 04:47:39;;;;;;;10.97;5.57;;;;;;;-145.18;100.00;46656.50;4994203;28;20027;-85
2022/06/15 04:50:06;;;;;;;14.10;5.13;;;;;;;-145.18;100.00;46656.50;4988000;28;20041;-84
2022/06/15 04:52:32;;;;;;;12.67;5.53;;;;;;;-145.18;100.00;46654.53;4992438;28;20475;-85
2022/06/15 04:54:58;;;;;;;9.43;5.87;;;;;;;-145.18;100.00;46652.59;4994368;28;20038;-85
2022/06/15 04:57:23;;;;;;;10.43;5.87;;;;;;;-145.18;100.00;46656.50;4994697;28;20030;-84
2022/06/15 04:59:49;;;;;;;9.67;5.13;;;;;;;-145.18;100.00;46658.44;4994354;28;20034;-85
2022/06/15 05:02:14;;;;;;;12.43;4.97;;;;;;;-145.18;100.00;46658.44;4994661;28;20026;-84
2022/06/15 05:04:40;;;;;;;11.97;5.47;;;;;;;-145.18;100.00;46660.41;4993602;28;20372;-84
2022/06/15 05:07:06;;;;;;;9.80;4.90;;;;;;;-145.18;100.00;46658.44;4989684;28;20061;-82
2022/06/15 05:09:32;;;;;;;15.10;5.40;;;;;;;-145.18;100.00;46656.50;4993939;28;20030;-84
2022/06/15 05:11:57;;;;;;;10.77;5.47;;;;;;;-145.18;100.00;46658.44;4994457;28;20441;-82
2022/06/15 05:14:22;;;;;;;10.93;5.40;;;;;;;-145.18;100.00;46650.63;4988833;28;20038;-84
2022/06/15 05:16:48;;;;;;;8.37;5.47;;;;;;;-145.18;100.00;46656.50;4979950;28;20039;-84
2022/06/15 05:19:14;;;;;;;11.37;5.70;;;;;;;-145.18;100.00;46650.63;4974029;28;20040;-85
2022/06/15 05:21:41;;;;;;;18.27;6.33;;;;;;;-145.18;100.00;46652.59;4974628;28;20030;-84
2022/06/15 05:24:07;;;;;;;9.70;5.50;;;;;;;-145.18;100.00;46650.63;4983045;28;20033;-85
2022/06/15 05:26:33;;;;;;;14.53;6.20;;;;;;;-145.18;100.00;46654.53;4993816;28;20045;-85
2022/06/15 05:28:58;;;;;;;12.87;5.60;;;;;;;-145.18;100.00;46650.63;4993605;28;20435;-85
2022/06/15 05:31:24;;;;;;;12.43;6.10;;;;;;;-145.18;100.00;46654.53;4994084;28;20081;-85
2022/06/15 05:33:53;;;;;;;11.60;5.37;;;;;;;-145.18;100.00;46646.72;4994044;28;20039;-86
2022/06/15 05:36:21;;;;;;;11.30;5.77;;;;;;;-145.18;100.00;46648.69;4993625;28;20041;-86
2022/06/15 05:38:46;;;;;;;14.17;6.07;;;;;;;-145.18;100.00;46644.78;4988429;28;20042;-87
2022/06/15 05:41:12;;;;;;;8.47;5.30;;;;;;;-145.18;100.00;46642.81;4974099;28;20050;-86
2022/06/15 05:44:15;;;;;;;20.93;7.07;;;;;;;-145.18;100.00;46636.94;4973519;28;20150;-85
2022/06/15 05:46:32;;;;;;;14.43;6.00;;;;;;;-145.18;100.00;46621.31;4971810;28;20051;-86
2022/06/15 05:48:58;;;;;;;17.90;5.37;;;;;;;-145.18;100.00;46625.22;4972187;28;20092;-85
2022/06/15 05:51:24;;;;;;;12.13;5.63;;;;;;;-145.18;100.00;46615.47;4972684;28;20105;-86
2022/06/15 05:53:50;;;;;;;12.17;4.90;;;;;;;-145.18;100.00;46611.56;4973327;28;20035;-86
2022/06/15 05:56:16;;;;;;;17.10;5.83;;;;;;;-145.18;100.00;46574.44;4974033;28;20035;-85
2022/06/15 05:58:43;;;;;;;16.97;6.27;;;;;;;-145.18;100.00;46566.63;4973111;28;20046;-86
2022/06/15 06:01:16;;;;;;;10.97;5.70;;;;;;;-145.18;100.00;46551.00;4973824;28;20035;-85
2022/06/15 06:03:42;;;;;;;17.27;5.57;;;;;;;-145.18;100.00;46552.97;4966013;28;20419;-86
2022/06/15 06:06:10;;;;;;;12.50;5.50;;;;;;;-145.18;100.00;46547.09;4954502;29;20051;-85
2022/06/15 06:08:35;;;;;;;11.47;5.93;;;;;;;-145.18;100.00;46537.34;4953709;29;20110;-85
2022/06/15 06:11:01;;;;;;;16.43;6.73;;;;;;;-145.18;100.00;46531.47;4955247;29;20415;-85
2022/06/15 06:13:27;;;;;;;17.77;7.60;;;;;;;-145.18;100.00;46527.56;4954274;29;20042;-85
2022/06/15 06:15:54;;;;;;;17.47;6.20;;;;;;;-145.18;100.00;46527.56;4954114;29;20051;-84
2022/06/15 06:18:19;;;;;;;10.03;5.80;;;;;;;-145.18;100.00;46529.53;4953772;29;20075;-83
2022/06/15 06:20:44;;;;;;;18.17;6.80;;;;;;;-145.18;100.00;46519.75;4969035;28;20222;-85
2022/06/15 06:23:10;;;;;;;14.50;5.73;;;;;;;-145.18;100.00;46527.56;4973428;28;20031;-85
2022/06/15 06:25:35;;;;;;;9.73;5.63;;;;;;;-145.18;100.00;46531.47;4973170;28;20057;-85
2022/06/15 06:28:00;;;;;;;11.30;6.10;;;;;;;-145.18;100.00;46529.53;4973795;28;20062;-85
2022/06/15 06:30:26;;;;;;;12.47;5.83;;;;;;;-145.18;100.00;46531.47;4972972;28;20630;-85
2022/06/15 06:32:51;;;;;;;13.13;6.00;;;;;;;-145.18;100.00;46529.53;4973200;28;20038;-85
2022/06/15 06:35:17;;;;;;;10.70;5.73;;;;;;;-145.18;100.00;46533.44;4973222;28;20102;-85
2022/06/15 06:37:44;;;;;;;11.23;5.97;;;;;;;-145.18;100.00;46533.44;4972911;28;20050;-85
2022/06/15 06:40:15;;;;;;;13.93;5.93;;;;;;;-145.18;100.00;46541.25;4972514;28;20050;-83
2022/06/15 06:42:40;;;;;;;11.83;6.67;;;;;;;-145.18;100.00;46543.19;4968457;28;20034;-84
2022/06/15 06:45:09;;;;;;;15.47;6.43;;;;;;;-145.18;100.00;46533.44;4953552;29;20027;-83
2022/06/15 06:47:35;;;;;;;16.10;5.90;;;;;;;-145.18;100.00;46537.34;4953263;29;20419;-85
2022/06/15 06:50:00;;;;;;;14.97;6.43;;;;;;;-145.18;100.00;46529.53;4953880;29;20032;-86
2022/06/15 06:52:31;;;;;;;14.03;5.83;;;;;;;-145.18;100.00;46527.56;4953668;29;20184;-86
2022/06/15 06:54:57;;;;;;;13.63;6.90;;;;;;;-145.18;100.00;46545.16;4952878;28;20035;-84
2022/06/15 06:57:23;;;;;;;15.33;6.50;;;;;;;-145.18;100.00;46531.47;4953762;29;20580;-85
2022/06/15 06:59:48;;;;;;;12.87;5.30;;;;;;;-145.18;100.00;46535.38;4960022;28;20476;-85
2022/06/15 07:02:13;;;;;;;15.40;6.03;;;;;;;-145.18;100.00;46539.28;4972992;28;20062;-85
2022/06/15 07:04:39;;;;;;;14.80;6.10;;;;;;;-145.18;100.00;46545.16;4981005;28;20491;-85
2022/06/15 07:07:04;;;;;;;16.30;6.30;;;;;;;-145.18;100.00;46547.09;4992239;28;20418;-85
2022/06/15 07:09:30;;;;;;;14.63;5.80;;;;;;;-145.18;100.00;46543.19;4991784;28;20043;-84
2022/06/15 07:11:55;;;;;;;11.27;5.57;;;;;;;-145.18;100.00;46547.09;4990879;28;20034;-84
2022/06/15 07:14:20;;;;;;;16.63;6.17;;;;;;;-145.18;100.00;46552.97;4991192;28;20113;-85
2022/06/15 07:16:46;;;;;;;13.30;6.33;;;;;;;-145.18;100.00;46543.19;4991988;28;20041;-86
2022/06/15 07:19:11;;;;;;;11.60;5.67;;;;;;;-145.18;100.00;46549.06;4992511;28;20034;-84
2022/06/15 07:21:38;;;;;;;11.30;5.20;;;;;;;-145.18;100.00;46541.25;4992318;28;20141;-86
2022/06/15 07:24:04;;;;;;;10.90;5.27;;;;;;;-145.18;100.00;46554.91;4989430;28;20034;-85
2022/06/15 07:26:38;;;;;;;11.97;5.20;;;;;;;-145.18;100.00;46547.09;4973215;28;20050;-85
2022/06/15 07:29:04;;;;;;;13.13;4.80;;;;;;;-145.18;100.00;46551.00;4972195;28;20035;-85
2022/06/15 07:31:33;;;;;;;10.97;4.33;;;;;;;-145.18;100.00;46556.88;4982560;28;20133;-85
2022/06/15 07:33:59;;;;;;;8.60;4.60;;;;;;;-145.18;100.00;46574.44;4992517;28;20109;-85
2022/06/15 07:36:25;;;;;;;13.27;4.70;;;;;;;-145.18;100.00;46560.78;4992098;28;20061;-84
2022/06/15 07:38:53;;;;;;;10.53;4.13;;;;;;;-145.18;100.00;46597.88;4991899;28;20042;-85
2022/06/15 07:41:18;;;;;;;10.50;4.40;;;;;;;-145.18;100.00;46590.06;4981502;28;20022;-85
2022/06/15 07:43:44;;;;;;;10.40;4.67;;;;;;;-145.18;100.00;46584.22;4977096;28;20059;-84
2022/06/15 07:46:09;;;;;;;11.20;4.23;;;;;;;-145.18;100.00;46586.16;4980140;28;20031;-83
2022/06/15 07:51:30;;;;;;;6.77;2.60;;;;;;;-145.18;100.00;46777.59;4985857;28;20041;-84
2022/06/15 07:53:57;;;;;;;13.17;4.03;;;;;;;-145.18;100.00;46945.59;4982678;28;20137;-84
2022/06/15 07:56:22;;;;;;;15.30;2.93;;;;;;;-145.18;100.00;46992.47;4985106;28;20113;-82
2022/06/15 07:58:48;;;;;;;9.73;3.93;;;;;;;-145.18;100.00;47156.56;4988563;28;20184;-84
2022/06/15 08:01:13;;;;;;;8.17;2.53;;;;;;;-145.18;100.00;47209.31;4991790;28;20464;-84
2022/06/15 08:03:38;;;;;;;8.90;2.40;;;;;;;-145.18;100.00;47166.34;4990907;28;20141;-84
2022/06/15 08:06:04;;;;;;;18.67;3.27;;;;;;;-145.18;100.00;47156.56;4991425;28;20030;-84
2022/06/15 08:08:30;;;;;;;6.87;2.27;;;;;;;-145.18;100.00;47123.38;4991373;28;20047;-83
2022/06/15 08:10:55;;;;;;;7.20;2.47;;;;;;;-145.18;100.00;47115.56;4990458;28;20049;-83
2022/06/15 08:13:21;;;;;;;4.73;2.10;;;;;;;-145.18;100.00;47115.56;4991502;28;20030;-84
2022/06/15 08:15:48;;;;;;;11.33;2.90;;;;;;;-145.18;100.00;47107.72;4990347;28;20042;-83
2022/06/15 08:18:21;;;;;;;11.47;2.80;;;;;;;-145.18;100.00;47115.56;4991268;28;20485;-85
2022/06/15 08:20:59;;;;;;;11.97;3.03;;;;;;;-145.18;100.00;47113.59;4990397;28;20499;-84
2022/06/15 08:23:28;;;;;;;7.80;2.33;;;;;;;-145.18;100.00;47129.22;4991180;28;20073;-84
2022/06/15 08:25:56;;;;;;;8.23;2.23;;;;;;;-145.18;100.00;47097.97;4973106;28;20031;-85
2022/06/15 08:28:26;;;;;;;12.60;3.13;;;;;;;-145.18;100.00;47109.69;4991413;28;20145;-84
2022/06/15 08:30:52;;;;;;;7.30;2.70;;;;;;;-145.18;100.00;47078.44;4990671;28;20167;-85
2022/06/15 08:33:18;;;;;;;7.17;2.33;;;;;;;-145.18;100.00;47096.00;4990834;28;20105;-84
2022/06/15 08:35:43;;;;;;;7.47;2.50;;;;;;;-145.18;100.00;47097.97;4990408;28;20082;-83
2022/06/15 08:38:12;;;;;;;8.47;2.40;;;;;;;-145.18;100.00;47078.44;4973730;28;20042;-84
2022/06/15 08:41:06;;;;;;;9.73;2.20;;;;;;;-145.18;100.00;47078.44;4990548;28;20040;-84
2022/06/15 08:43:50;;;;;;;9.90;2.40;;;;;;;-145.18;100.00;47078.44;4983304;28;20039;-83
2022/06/15 08:46:19;;;;;;;10.20;2.50;;;;;;;-145.18;100.00;47074.53;4990873;28;20064;-83
2022/06/15 08:48:44;;;;;;;9.13;2.10;;;;;;;-145.18;100.00;47066.72;4990085;28;20049;-83
2022/06/15 08:51:21;;;;;;;5.07;2.10;;;;;;;-145.18;100.00;47062.81;4986222;28;20019;-84
2022/06/15 08:54:17;;;;;;;9.40;2.50;;;;;;;-145.18;100.00;47072.56;4971112;28;20105;-84
2022/06/15 08:56:55;;;;;;;7.73;2.70;;;;;;;-145.18;100.00;47055.00;4971179;28;20485;-85
2022/06/15 08:59:34;;;;;;;12.03;3.23;;;;;;;-145.18;100.00;47072.56;4969377;28;20030;-82
2022/06/15 09:02:44;;;;;;;9.00;3.23;;;;;;;-145.18;100.00;47068.66;4970874;28;20023;-84
2022/06/15 09:05:35;;;;;;;6.77;2.53;;;;;;;-145.18;100.00;47055.00;4934681;28;20050;-84
2022/06/15 09:08:13;;;;;;;7.33;2.20;;;;;;;-145.18;100.00;47049.13;4971398;28;20039;-83
2022/06/15 09:10:51;;;;;;;6.83;2.60;;;;;;;-145.18;100.00;47060.84;4953291;28;20122;-83
2022/06/15 09:13:48;;;;;;;7.37;3.13;;;;;;;-145.18;100.00;47045.22;4971280;28;20027;-83
2022/06/15 09:16:32;;;;;;;9.57;2.63;;;;;;;-145.18;100.00;47047.19;4971237;28;20038;-83
2022/06/15 09:19:09;;;;;;;9.80;2.80;;;;;;;-145.18;100.00;47043.28;4970390;28;20035;-82
2022/06/15 09:21:43;;;;;;;7.03;3.37;;;;;;;-145.18;100.00;47041.31;4970948;28;20031;-82
2022/06/15 09:24:39;;;;;;;8.33;2.90;;;;;;;-145.18;100.00;47053.03;4974133;28;20045;-82
2022/06/15 09:27:13;;;;;;;9.55;2.53;;;;;;;-145.18;100.00;47043.28;4990634;28;20050;-82
2022/06/15 09:42:41;;;;;;;10.77;2.80;;;;;;;-145.18;100.00;47027.63;4952092;29;20058;-81
2022/06/15 09:45:09;;;;;;;8.30;2.30;;;;;;;-145.18;100.00;47023.72;4950677;28;20471;-81
2022/06/15 09:48:11;;;;;;;7.83;2.80;;;;;;;-145.18;100.00;47033.50;4949649;29;20118;-81
2022/06/15 09:50:48;;;;;;;10.60;3.00;;;;;;;-145.18;100.00;47029.59;4939703;29;20055;-80
2022/06/15 09:53:38;;;;;;;7.70;2.93;;;;;;;-145.18;100.00;47019.81;4931342;29;20102;-80
2022/06/15 09:56:08;;;;;;;5.17;3.00;;;;;;;-145.18;100.00;47021.78;4913597;29;20219;-77
2022/06/15 09:58:40;;;;;;;10.47;2.97;;;;;;;-145.18;100.00;47015.91;4981552;23;20069;-83
2022/06/15 10:01:07;;;;;;;6.87;2.40;;;;;;;-145.18;100.00;47027.63;4972690;28;20518;-81
2022/06/15 10:03:38;;;;;;;6.97;2.20;;;;;;;-145.18;100.00;47013.97;4992997;28;20041;-81
2022/06/15 10:06:24;;;;;;;4.30;2.07;;;;;;;-145.18;100.00;47012.00;4992909;28;20034;-81
2022/06/15 10:08:51;;;;;;;7.10;3.30;;;;;;;-145.18;100.00;47025.69;4993072;28;20034;-82
2022/06/15 10:11:24;;;;;;;8.70;2.90;;;;;;;-145.18;100.00;47015.91;4992957;28;20062;-81
2022/06/15 10:13:49;;;;;;;11.10;3.03;;;;;;;-145.18;100.00;47027.63;4992625;28;20022;-81
2022/06/15 10:16:14;;;;;;;5.43;2.20;;;;;;;-145.18;100.00;47010.06;4988812;28;20526;-81
2022/06/15 10:18:48;;;;;;;6.10;1.90;;;;;;;-145.18;100.00;47000.28;4992407;28;20109;-81
2022/06/15 10:21:14;;;;;;;8.50;2.80;;;;;;;-145.18;100.00;46990.53;4991190;28;20019;-81
2022/06/15 10:24:17;;;;;;;10.33;3.07;;;;;;;-145.18;100.00;46994.44;4991246;28;20381;-82
2022/06/15 10:26:53;;;;;;;8.03;2.60;;;;;;;-145.18;100.00;46984.66;4977116;28;20046;-81
2022/06/15 10:29:36;;;;;;;8.60;2.97;;;;;;;-145.18;100.00;47008.09;4992420;28;20182;-81
2022/06/15 10:32:24;;;;;;;10.10;3.40;;;;;;;-145.18;100.00;47004.19;4992879;28;20034;-81
2022/06/15 10:35:27;;;;;;;7.13;2.60;;;;;;;-145.18;100.00;46990.53;4991739;28;20038;-81
2022/06/15 10:37:56;;;;;;;9.27;2.90;;;;;;;-145.18;100.00;47004.19;4969774;28;20114;-81
2022/06/15 10:40:27;;;;;;;4.87;2.53;;;;;;;-145.18;100.00;47004.19;4987785;28;20035;-81
2022/06/15 10:43:06;;;;;;;11.07;3.20;;;;;;;-145.18;100.00;46992.47;4992633;28;20038;-81
2022/06/15 10:45:37;;;;;;;7.73;2.77;;;;;;;-145.18;100.00;46996.38;4992354;28;20513;-81
2022/06/15 10:48:33;;;;;;;6.67;2.60;;;;;;;-145.18;100.00;46974.91;4992056;28;20077;-81
2022/06/15 10:51:04;;;;;;;10.27;3.70;;;;;;;-145.18;100.00;46988.56;4991687;28;20034;-81
2022/06/15 10:53:46;;;;;;;8.60;2.70;;;;;;;-145.18;100.00;46965.13;4991754;28;20120;-81
2022/06/15 11:02:26;;;;;;;6.43;2.43;;;;;;;-145.18;100.00;46969.03;4992234;28;20058;-81
2022/06/15 11:04:57;;;;;;;7.77;2.43;;;;;;;-145.18;100.00;46961.22;4991786;28;20110;-81
2022/06/15 11:07:22;;;;;;;5.80;2.57;;;;;;;-145.18;100.00;46961.22;4991570;28;20050;-80
2022/06/15 11:09:53;;;;;;;9.37;2.43;;;;;;;-145.18;98.24;46953.41;4990121;28;20030;-81
2022/06/15 11:12:36;;;;;;;10.50;2.83;;;;;;;-145.18;100.00;46965.13;4991134;28;20034;-81
2022/06/15 11:15:13;;;;;;;7.03;2.50;;;;;;;-145.18;99.43;46955.34;4991173;28;20038;-80
2022/06/15 11:18:03;;;;;;;7.17;2.17;;;;;;;-145.18;99.76;46953.41;4991788;28;20694;-80
2022/06/15 11:20:54;;;;;;;6.17;2.40;;;;;;;-145.18;99.32;46949.50;4973756;28;20037;-80
2022/06/15 11:23:41;;;;;;;11.97;3.03;;;;;;;-145.18;97.51;46955.34;4971065;28;20031;-80
2022/06/15 11:26:52;;;;;;;7.13;2.40;;;;;;;-145.18;95.45;46955.34;4970721;28;20481;-80
2022/06/15 11:28:58;;;;;;;11.33;2.70;;;;;;;-145.18;93.79;46951.44;4971976;28;20474;-80
2022/06/15 11:31:27;;;;;;;6.20;2.40;;;;;;;-145.18;97.64;46941.69;4954719;28;20085;-80
2022/06/15 11:34:02;;;;;;;6.17;2.40;;;;;;;-145.18;94.66;46945.59;4971992;28;20037;-80
2022/06/15 11:36:51;;;;;;;8.90;2.25;;;;;;;-145.18;83.82;46953.41;4971746;28;20097;-80
2022/06/15 11:39:25;;;;;;;5.93;2.40;;;;;;;-145.18;85.48;46982.72;4971856;28;20062;-79
2022/06/15 11:41:54;;;;;;;7.17;2.40;;;;;;;-145.18;89.06;46961.22;4972104;28;20435;-80
2022/06/15 11:44:27;;;;;;;8.17;2.13;;;;;;;-145.18;94.37;46959.25;4971656;28;20081;-80
2022/06/15 11:47:13;;;;;;;7.70;1.90;;;;;;;-145.18;93.35;46937.78;4971797;28;20490;-80
2022/06/15 11:50:00;;;;;;;7.90;2.77;;;;;;;-145.18;88.58;46929.97;4971927;28;20033;-80
2022/06/15 11:53:17;;;;;;;6.57;2.33;;;;;;;-145.18;89.89;46928.00;4972008;28;20038;-80